createdAt,value
2023-03-23T00:02:09.727Z,46.00
2023-03-23T00:12:15.076Z,52.00
2023-03-23T00:22:20.857Z,52.00
2023-03-23T00:32:26.365Z,52.00
2023-03-23T00:42:31.764Z,56.00
2023-03-23T00:52:37.445Z,56.00
2023-03-23T01:02:42.788Z,48.00
2023-03-23T01:22:54.288Z,58.00
2023-03-23T01:33:00.307Z,56.00
2023-03-23T01:43:05.644Z,58.00
2023-03-23T01:53:11.893Z,52.00
2023-03-23T02:03:17.442Z,52.00
2023-03-23T02:13:22.980Z,58.00
2023-03-23T02:23:28.573Z,56.00
2023-03-23T02:33:34.768Z,58.00
2023-03-23T02:43:40.634Z,56.00
2023-03-23T02:53:46.381Z,60.00
2023-03-23T03:03:52.193Z,54.00
2023-03-23T03:13:58.080Z,52.00
2023-03-23T03:24:03.737Z,56.00
2023-03-23T03:34:09.195Z,58.00
2023-03-23T03:44:15.324Z,58.00
2023-03-23T03:54:21.374Z,58.00
2023-03-23T04:04:27.220Z,58.00
2023-03-23T04:14:32.925Z,58.00
2023-03-23T04:24:56.203Z,60.00
2023-03-23T04:34:49.675Z,54.00
2023-03-23T04:44:55.961Z,50.00
2023-03-23T04:55:02.236Z,50.00
2023-03-23T05:05:08.263Z,50.00
2023-03-23T05:15:14.262Z,52.00
2023-03-23T05:25:20.300Z,54.00
2023-03-23T05:35:24.367Z,54.00
2023-03-23T05:45:30.041Z,58.00
2023-03-23T05:55:36.549Z,56.00
2023-03-23T06:05:43.560Z,50.00
2023-03-23T06:15:49.995Z,50.00
2023-03-23T06:25:56.236Z,52.00
2023-03-23T06:36:07.882Z,50.00
2023-03-23T06:46:15.047Z,52.00
2023-03-23T06:56:21.052Z,52.00
2023-03-23T07:06:27.311Z,50.00
2023-03-23T07:16:33.738Z,50.00
2023-03-23T07:26:40.013Z,50.00
2023-03-23T07:36:46.910Z,52.00
2023-03-23T07:46:53.969Z,50.00
2023-03-23T07:57:01.060Z,52.00
2023-03-23T08:07:07.686Z,52.00
2023-03-23T08:17:14.658Z,52.00
2023-03-23T08:27:21.190Z,50.00
2023-03-23T08:37:28.081Z,52.00
2023-03-23T08:47:34.849Z,50.00
2023-03-23T08:57:41.784Z,52.00
2023-03-23T09:07:48.236Z,52.00
2023-03-23T09:17:54.900Z,52.00
2023-03-23T09:28:01.678Z,50.00
2023-03-23T09:38:08.330Z,50.00
2023-03-23T09:48:15.151Z,50.00
2023-03-23T09:58:21.958Z,52.00
2023-03-23T10:08:28.804Z,52.00
2023-03-23T10:18:35.423Z,52.00
2023-03-23T10:28:42.126Z,50.00
2023-03-23T10:38:49.540Z,50.00
2023-03-23T10:48:56.560Z,52.00
2023-03-23T10:59:03.435Z,50.00
2023-03-23T11:09:10.349Z,52.00
2023-03-23T11:19:17.334Z,52.00
2023-03-23T11:29:24.156Z,52.00
2023-03-23T11:39:30.823Z,52.00
2023-03-23T11:49:37.900Z,52.00
2023-03-23T11:59:44.883Z,52.00
2023-03-23T12:09:51.603Z,52.00
2023-03-23T12:19:58.168Z,50.00
2023-03-23T12:30:04.505Z,52.00
2023-03-23T12:40:11.131Z,52.00
2023-03-23T12:50:17.754Z,50.00
2023-03-23T13:00:24.168Z,52.00
2023-03-23T13:10:31.296Z,52.00
2023-03-23T13:20:37.998Z,50.00
2023-03-23T13:30:44.996Z,50.00
2023-03-23T13:40:51.818Z,50.00
2023-03-23T13:50:58.104Z,52.00
2023-03-23T14:01:05.045Z,52.00
2023-03-23T14:11:11.639Z,50.00
2023-03-23T14:21:18.585Z,50.00
2023-03-23T14:31:24.864Z,50.00
2023-03-23T14:41:31.092Z,50.00
2023-03-23T14:51:37.617Z,50.00
2023-03-23T15:01:44.148Z,52.00
2023-03-23T15:11:50.940Z,50.00
2023-03-23T15:21:57.614Z,50.00
2023-03-23T15:32:05.354Z,52.00
2023-03-23T15:42:12.056Z,50.00
2023-03-23T15:53:38.156Z,50.00
2023-03-23T16:03:43.519Z,50.00
2023-03-23T16:13:50.240Z,48.00
2023-03-23T16:23:56.800Z,50.00
2023-03-23T16:34:03.455Z,50.00
2023-03-23T16:44:09.640Z,50.00
2023-03-23T16:54:15.764Z,50.00
2023-03-23T17:04:22.035Z,50.00
2023-03-23T17:14:28.084Z,50.00
2023-03-23T17:24:34.077Z,52.00
2023-03-23T17:34:40.608Z,52.00
2023-03-23T17:44:46.891Z,52.00
2023-03-23T17:54:53.373Z,50.00
2023-03-23T18:05:00.229Z,50.00
2023-03-23T18:15:06.942Z,48.00
2023-03-23T18:25:13.554Z,50.00
2023-03-23T18:35:20.112Z,48.00
2023-03-23T18:45:24.474Z,48.00
2023-03-23T18:55:30.846Z,48.00
2023-03-23T19:05:38.177Z,52.00
2023-03-23T19:15:45.405Z,54.00
2023-03-23T19:25:52.120Z,52.00
2023-03-23T19:36:09.256Z,54.00
2023-03-23T19:46:09.992Z,54.00
2023-03-23T19:56:16.053Z,52.00
2023-03-23T20:06:22.043Z,54.00
2023-03-23T20:16:29.248Z,54.00
2023-03-23T20:26:35.719Z,54.00
2023-03-23T20:36:42.472Z,50.00
2023-03-23T20:46:48.295Z,48.00
2023-03-23T20:56:56.210Z,50.00
2023-03-23T21:07:02.834Z,44.00
2023-03-23T21:17:09.062Z,44.00
2023-03-23T21:27:24.016Z,46.00
2023-03-23T21:37:33.080Z,46.00
2023-03-23T21:47:39.047Z,48.00
2023-03-23T21:57:45.198Z,48.00
2023-03-23T22:07:51.280Z,48.00
2023-03-23T22:17:57.864Z,48.00
2023-03-23T22:28:04.260Z,46.00
2023-03-23T22:38:10.370Z,46.00
2023-03-23T22:48:16.790Z,46.00
2023-03-23T22:58:23.225Z,46.00
2023-03-23T23:08:29.412Z,48.00
2023-03-23T23:18:35.727Z,44.00
2023-03-23T23:28:41.995Z,44.00
2023-03-23T23:38:48.626Z,44.00
2023-03-23T23:48:54.846Z,48.00
2023-03-23T23:59:00.978Z,52.00
